createdAt,value
2023-11-14T00:01:14.098Z,71.32
2023-11-14T00:03:40.725Z,70.97
2023-11-14T00:06:07.459Z,71.07
2023-11-14T00:08:34.005Z,71.11
2023-11-14T00:11:00.696Z,71.08
2023-11-14T00:13:27.367Z,70.88
2023-11-14T00:15:54.231Z,71.11
2023-11-14T00:18:20.894Z,70.87
2023-11-14T00:20:47.552Z,70.85
2023-11-14T00:23:14.106Z,70.68
2023-11-14T00:25:40.944Z,70.91
2023-11-14T00:28:08.846Z,71.08
2023-11-14T00:30:35.412Z,71.01
2023-11-14T00:33:02.342Z,71.26
2023-11-14T00:35:28.903Z,71.01
2023-11-14T00:37:55.780Z,71.25
2023-11-14T00:40:25.122Z,71.64
2023-11-14T00:42:51.641Z,71.49
2023-11-14T00:45:18.183Z,71.28
2023-11-14T00:47:45.041Z,71.10
2023-11-14T00:50:13.283Z,71.22
2023-11-14T00:52:39.850Z,71.37
2023-11-14T00:55:08.201Z,71.23
2023-11-14T00:57:34.700Z,71.48
2023-11-14T01:00:01.257Z,71.54
2023-11-14T01:02:28.069Z,71.43
2023-11-14T01:04:54.801Z,71.27
2023-11-14T01:07:21.473Z,71.56
2023-11-14T01:09:48.052Z,71.63
2023-11-14T01:12:14.668Z,71.49
2023-11-14T01:14:41.287Z,71.43
2023-11-14T01:17:08.233Z,71.45
2023-11-14T01:19:41.993Z,71.35
2023-11-14T01:22:08.993Z,71.33
2023-11-14T01:24:35.619Z,71.51
2023-11-14T01:27:03.680Z,71.74
2023-11-14T01:29:30.207Z,72.05
2023-11-14T01:31:56.804Z,71.94
2023-11-14T01:34:24.353Z,71.85
2023-11-14T01:36:52.438Z,71.89
2023-11-14T01:39:18.978Z,71.45
2023-11-14T01:41:46.281Z,71.59
2023-11-14T01:44:12.887Z,71.75
2023-11-14T01:46:39.977Z,71.59
2023-11-14T01:49:06.912Z,72.00
2023-11-14T01:51:34.274Z,72.30
2023-11-14T01:54:02.695Z,71.94
2023-11-14T01:56:30.128Z,72.43
2023-11-14T01:58:57.839Z,72.31
2023-11-14T02:01:25.453Z,72.24
2023-11-14T02:03:52.412Z,72.25
2023-11-14T02:06:18.920Z,72.39
2023-11-14T02:08:45.658Z,72.60
2023-11-14T02:11:12.336Z,72.27
2023-11-14T02:13:40.015Z,72.45
2023-11-14T02:16:06.927Z,72.22
2023-11-14T02:18:33.502Z,72.26
2023-11-14T02:21:00.091Z,72.14
2023-11-14T02:23:29.997Z,72.57
2023-11-14T02:25:57.427Z,72.33
2023-11-14T02:28:24.029Z,72.30
2023-11-14T02:30:50.735Z,72.39
2023-11-14T02:33:17.406Z,72.71
2023-11-14T02:35:44.145Z,72.86
2023-11-14T02:38:11.138Z,72.73
2023-11-14T02:40:38.532Z,72.82
2023-11-14T02:43:05.351Z,72.54
2023-11-14T02:45:32.125Z,72.55
2023-11-14T02:47:58.817Z,72.82
2023-11-14T02:50:43.610Z,72.94
2023-11-14T02:53:10.480Z,72.85
2023-11-14T02:55:37.127Z,72.88
2023-11-14T02:58:03.642Z,72.72
2023-11-14T03:00:30.792Z,72.94
2023-11-14T03:02:57.329Z,72.82
2023-11-14T03:05:23.836Z,72.79
2023-11-14T03:07:50.353Z,73.30
2023-11-14T03:10:16.969Z,72.97
2023-11-14T03:12:43.497Z,73.21
2023-11-14T03:15:10.919Z,72.98
2023-11-14T03:17:37.567Z,73.01
2023-11-14T03:20:05.546Z,72.84
2023-11-14T03:22:32.061Z,73.04
2023-11-14T03:24:58.612Z,72.96
2023-11-14T03:27:25.108Z,73.03
2023-11-14T03:29:52.036Z,73.02
2023-11-14T03:32:18.622Z,72.92
2023-11-14T03:34:45.246Z,72.85
2023-11-14T03:37:11.716Z,72.68
2023-11-14T03:39:41.030Z,72.24
2023-11-14T03:42:07.628Z,71.95
2023-11-14T03:44:34.236Z,71.57
2023-11-14T03:47:00.748Z,71.88
2023-11-14T03:49:27.249Z,71.43
2023-11-14T03:51:53.792Z,71.55
2023-11-14T03:54:20.292Z,71.48
2023-11-14T03:56:46.800Z,71.04
2023-11-14T03:59:13.294Z,71.45
2023-11-14T04:01:39.897Z,71.48
2023-11-14T04:04:06.584Z,71.54
2023-11-14T04:06:33.120Z,71.78
2023-11-14T04:08:59.779Z,71.86
2023-11-14T04:11:26.326Z,71.68
2023-11-14T04:13:52.865Z,71.77
2023-11-14T04:16:20.833Z,72.08
2023-11-14T04:18:47.508Z,72.10
2023-11-14T04:21:20.550Z,72.30
2023-11-14T04:23:47.813Z,72.25
2023-11-14T04:26:15.973Z,72.42
2023-11-14T04:28:42.741Z,72.38
2023-11-14T04:31:09.738Z,72.57
2023-11-14T04:33:36.292Z,72.56
2023-11-14T04:36:03.002Z,72.83
2023-11-14T04:38:29.507Z,73.04
2023-11-14T04:40:56.075Z,73.10
2023-11-14T04:43:22.614Z,72.99
2023-11-14T04:45:49.155Z,72.82
2023-11-14T04:48:15.888Z,73.31
2023-11-14T04:50:42.402Z,73.30
2023-11-14T04:53:09.739Z,74.06
2023-11-14T04:55:37.901Z,74.65
2023-11-14T04:58:04.815Z,75.32
2023-11-14T05:00:31.418Z,75.43
2023-11-14T05:02:58.025Z,75.73
2023-11-14T05:05:25.544Z,76.10
2023-11-14T05:07:52.207Z,76.25
2023-11-14T05:10:19.025Z,76.24
2023-11-14T05:12:45.531Z,76.15
2023-11-14T05:15:12.237Z,76.13
2023-11-14T05:17:40.551Z,75.79
2023-11-14T05:20:08.366Z,76.11
2023-11-14T05:22:35.167Z,76.14
2023-11-14T05:25:01.730Z,76.36
2023-11-14T05:27:28.655Z,75.74
2023-11-14T05:29:56.437Z,75.28
2023-11-14T05:32:22.942Z,75.40
2023-11-14T05:34:49.499Z,75.18
2023-11-14T05:37:16.336Z,75.04
2023-11-14T05:39:42.831Z,74.97
2023-11-14T05:42:09.499Z,74.89
2023-11-14T05:44:36.098Z,74.89
2023-11-14T05:47:03.194Z,75.07
2023-11-14T05:49:30.976Z,74.81
2023-11-14T05:51:57.528Z,74.87
2023-11-14T05:54:24.042Z,74.95
2023-11-14T05:56:50.555Z,75.06
2023-11-14T05:59:17.102Z,75.12
2023-11-14T06:01:45.142Z,75.07
2023-11-14T06:04:11.706Z,74.94
2023-11-14T06:06:38.237Z,74.82
2023-11-14T06:09:04.779Z,75.15
2023-11-14T06:11:31.282Z,75.01
2023-11-14T06:13:57.766Z,74.87
2023-11-14T06:16:27.125Z,75.08
2023-11-14T06:18:53.892Z,74.99
2023-11-14T06:21:20.402Z,75.51
2023-11-14T06:23:47.422Z,75.52
2023-11-14T06:26:14.818Z,75.35
2023-11-14T06:28:41.476Z,75.23
2023-11-14T06:31:07.967Z,75.34
2023-11-14T06:33:35.073Z,75.24
2023-11-14T06:36:01.672Z,75.33
2023-11-14T06:38:30.934Z,75.23
2023-11-14T06:40:59.922Z,75.27
2023-11-14T06:43:26.468Z,75.54
2023-11-14T06:45:53.046Z,75.79
2023-11-14T06:48:19.542Z,76.13
2023-11-14T06:50:47.661Z,76.66
2023-11-14T06:53:14.870Z,76.94
2023-11-14T06:55:41.918Z,76.91
2023-11-14T06:58:09.011Z,77.27
2023-11-14T07:00:36.647Z,77.58
2023-11-14T07:03:03.322Z,77.25
2023-11-14T07:05:31.723Z,77.27
2023-11-14T07:08:00.673Z,76.81
2023-11-14T07:10:27.685Z,76.86
2023-11-14T07:12:54.199Z,76.32
2023-11-14T07:15:22.221Z,76.05
2023-11-14T07:17:52.473Z,75.84
2023-11-14T07:20:22.225Z,75.85
2023-11-14T07:22:49.796Z,76.12
2023-11-14T07:25:16.852Z,75.89
2023-11-14T07:27:43.437Z,75.60
2023-11-14T07:30:11.214Z,74.96
2023-11-14T07:32:38.078Z,74.28
2023-11-14T07:35:04.881Z,73.83
2023-11-14T07:37:31.849Z,74.24
2023-11-14T07:39:58.422Z,73.93
2023-11-14T07:42:24.979Z,73.93
2023-11-14T07:44:51.629Z,72.01
2023-11-14T07:47:21.216Z,72.78
2023-11-14T07:49:48.368Z,74.14
2023-11-14T07:52:14.951Z,74.65
2023-11-14T07:54:41.485Z,74.71
2023-11-14T07:57:07.996Z,74.99
2023-11-14T07:59:34.536Z,75.24
2023-11-14T08:02:01.131Z,74.94
2023-11-14T08:04:27.836Z,74.67
2023-11-14T08:06:54.470Z,71.66
2023-11-14T08:09:21.707Z,70.91
2023-11-14T08:11:48.775Z,70.82
2023-11-14T08:14:16.252Z,71.18
2023-11-14T08:16:42.918Z,71.16
2023-11-14T08:19:09.581Z,70.94
2023-11-14T08:21:36.150Z,71.08
2023-11-14T08:24:02.700Z,71.31
2023-11-14T08:26:30.017Z,71.43
2023-11-14T08:28:56.727Z,71.70
2023-11-14T08:31:24.405Z,71.78
2023-11-14T08:33:51.026Z,71.75
2023-11-14T08:36:17.672Z,72.25
2023-11-14T08:38:44.481Z,71.85
2023-11-14T08:41:11.206Z,72.27
2023-11-14T08:43:38.293Z,72.39
2023-11-14T08:46:04.849Z,72.96
2023-11-14T08:48:31.580Z,72.74
2023-11-14T08:50:58.170Z,73.60
2023-11-14T08:53:24.781Z,74.07
2023-11-14T08:55:53.342Z,74.52
2023-11-14T08:58:20.671Z,74.65
2023-11-14T09:00:48.293Z,74.34
2023-11-14T09:03:14.882Z,74.69
2023-11-14T09:05:41.446Z,73.76
2023-11-14T09:08:08.041Z,74.26
2023-11-14T09:10:34.625Z,73.78
2023-11-14T09:13:01.121Z,73.71
2023-11-14T09:15:27.792Z,73.61
2023-11-14T09:17:56.668Z,73.53
2023-11-14T09:20:26.200Z,72.45
2023-11-14T09:22:54.166Z,72.43
2023-11-14T09:25:21.755Z,72.05
2023-11-14T09:27:48.313Z,72.18
2023-11-14T09:30:15.523Z,71.87
2023-11-14T09:32:42.477Z,71.95
2023-11-14T09:35:11.642Z,71.84
2023-11-14T09:37:38.564Z,71.09
2023-11-14T09:40:09.521Z,70.57
2023-11-14T09:42:36.854Z,70.94
2023-11-14T09:45:06.153Z,70.70
2023-11-14T09:47:32.890Z,70.50
2023-11-14T09:50:00.598Z,70.53
2023-11-14T09:52:27.547Z,71.09
2023-11-14T09:54:54.460Z,70.53
2023-11-14T09:57:22.269Z,69.90
2023-11-14T09:59:51.270Z,70.78
2023-11-14T10:02:17.882Z,70.38
2023-11-14T10:04:44.432Z,69.75
2023-11-14T10:07:18.793Z,69.69
2023-11-14T10:09:47.197Z,70.55
2023-11-14T10:12:21.298Z,70.09
2023-11-14T10:14:52.011Z,70.62
2023-11-14T10:17:20.376Z,70.81
2023-11-14T10:20:07.359Z,70.84
2023-11-14T10:22:36.341Z,71.50
2023-11-14T10:25:04.009Z,71.58
2023-11-14T10:27:38.159Z,70.52
2023-11-14T10:30:05.650Z,70.97
2023-11-14T10:32:32.504Z,71.61
2023-11-14T10:35:16.914Z,72.35
2023-11-14T10:37:43.570Z,71.60
2023-11-14T10:40:11.980Z,70.74
2023-11-14T10:42:38.833Z,68.96
2023-11-14T10:45:10.830Z,69.01
2023-11-14T10:47:37.781Z,69.11
2023-11-14T10:50:06.144Z,69.14
2023-11-14T10:52:37.609Z,68.62
2023-11-14T10:55:06.783Z,68.74
2023-11-14T10:57:34.976Z,68.76
2023-11-14T11:00:01.967Z,68.63
2023-11-14T11:02:34.185Z,68.01
2023-11-14T11:05:04.313Z,66.02
2023-11-14T11:07:31.433Z,65.66
2023-11-14T11:09:58.067Z,63.84
2023-11-14T11:12:28.085Z,64.11
2023-11-14T11:14:55.041Z,63.75
2023-11-14T11:17:46.945Z,62.80
2023-11-14T11:20:24.484Z,64.68
2023-11-14T11:23:13.058Z,65.52
2023-11-14T11:25:46.199Z,64.84
2023-11-14T11:28:21.881Z,64.52
2023-11-14T11:31:07.434Z,63.14
2023-11-14T11:33:39.594Z,64.82
2023-11-14T11:36:36.565Z,64.69
2023-11-14T11:39:04.717Z,64.26
2023-11-14T11:41:35.731Z,64.80
2023-11-14T11:44:06.254Z,65.03
2023-11-14T11:46:41.156Z,64.54
2023-11-14T11:49:14.086Z,64.77
2023-11-14T11:51:50.846Z,63.85
2023-11-14T11:54:26.442Z,64.86
2023-11-14T11:57:06.184Z,65.35
2023-11-14T11:59:53.531Z,65.50
2023-11-14T12:02:25.195Z,65.27
2023-11-14T12:04:57.220Z,64.30
2023-11-14T12:07:24.602Z,64.55
2023-11-14T12:09:54.512Z,64.21
2023-11-14T12:12:21.152Z,63.56
2023-11-14T12:14:47.788Z,62.63
2023-11-14T12:17:15.181Z,63.29
2023-11-14T12:19:41.869Z,63.34
2023-11-14T12:22:09.118Z,62.96
2023-11-14T12:24:35.804Z,62.32
2023-11-14T12:27:02.443Z,62.03
2023-11-14T12:29:29.743Z,61.16
2023-11-14T12:31:57.083Z,60.29
2023-11-14T12:34:31.074Z,60.91
2023-11-14T12:37:09.218Z,60.25
2023-11-14T12:39:36.005Z,60.75
2023-11-14T12:42:02.777Z,60.63
2023-11-14T12:44:29.426Z,60.54
2023-11-14T12:46:56.212Z,60.61
2023-11-14T12:49:23.889Z,59.61
2023-11-14T12:51:53.375Z,59.79
2023-11-14T12:54:24.684Z,59.86
2023-11-14T12:56:52.690Z,59.66
2023-11-14T12:59:20.661Z,59.65
2023-11-14T13:01:50.225Z,59.83
2023-11-14T13:04:17.967Z,59.22
2023-11-14T13:06:47.107Z,59.95
2023-11-14T13:09:17.219Z,60.06
2023-11-14T13:11:44.341Z,59.97
2023-11-14T13:14:12.104Z,59.85
2023-11-14T13:16:40.006Z,59.72
2023-11-14T13:19:07.033Z,59.93
2023-11-14T13:21:34.726Z,59.73
2023-11-14T13:24:02.749Z,59.47
2023-11-14T13:26:29.753Z,59.96
2023-11-14T13:28:56.534Z,60.30
2023-11-14T13:31:23.301Z,59.95
2023-11-14T13:33:52.176Z,60.33
2023-11-14T13:36:21.301Z,60.42
2023-11-14T13:38:48.210Z,60.48
2023-11-14T13:41:16.901Z,60.73
2023-11-14T13:43:44.189Z,60.28
2023-11-14T13:46:20.940Z,60.29
2023-11-14T13:48:54.043Z,59.64
2023-11-14T13:51:20.868Z,59.30
2023-11-14T13:53:47.365Z,59.38
2023-11-14T13:56:14.046Z,59.22
2023-11-14T13:58:41.246Z,59.58
2023-11-14T14:01:10.367Z,59.11
2023-11-14T14:03:38.672Z,59.33
2023-11-14T14:06:10.584Z,58.94
2023-11-14T14:08:37.786Z,58.49
2023-11-14T14:11:08.218Z,58.42
2023-11-14T14:13:35.786Z,57.60
2023-11-14T14:16:04.157Z,58.26
2023-11-14T14:18:32.753Z,57.57
2023-11-14T14:21:03.901Z,57.00
2023-11-14T14:23:31.407Z,57.74
2023-11-14T14:25:58.660Z,57.43
2023-11-14T14:28:31.018Z,56.44
2023-11-14T14:31:00.341Z,56.60
2023-11-14T14:33:26.936Z,57.00
2023-11-14T14:35:54.139Z,57.19
2023-11-14T14:38:23.788Z,57.04
2023-11-14T14:40:50.591Z,57.76
2023-11-14T14:43:17.599Z,57.35
2023-11-14T14:45:47.921Z,56.45
2023-11-14T14:48:14.909Z,57.22
2023-11-14T14:50:41.568Z,57.38
2023-11-14T14:53:11.302Z,57.68
2023-11-14T14:55:37.957Z,58.10
2023-11-14T14:58:07.609Z,58.58
2023-11-14T15:00:34.410Z,58.54
2023-11-14T15:03:02.335Z,58.88
2023-11-14T15:05:36.603Z,59.16
2023-11-14T15:08:04.966Z,59.23
2023-11-14T15:10:31.790Z,59.67
2023-11-14T15:13:00.304Z,58.88
2023-11-14T15:15:27.976Z,58.97
2023-11-14T15:17:58.008Z,59.59
2023-11-14T15:20:25.692Z,59.69
2023-11-14T15:22:53.124Z,59.38
2023-11-14T15:25:19.866Z,59.95
2023-11-14T15:27:46.647Z,60.21
2023-11-14T15:30:13.997Z,60.52
2023-11-14T15:32:41.057Z,60.47
2023-11-14T15:35:08.538Z,60.50
2023-11-14T15:37:36.383Z,61.19
2023-11-14T15:40:09.306Z,61.08
2023-11-14T15:42:36.205Z,61.01
2023-11-14T15:45:04.678Z,61.38
2023-11-14T15:47:31.474Z,61.71
2023-11-14T15:49:58.441Z,61.29
2023-11-14T15:52:25.013Z,61.10
2023-11-14T15:54:53.221Z,61.53
2023-11-14T15:57:21.520Z,61.76
2023-11-14T15:59:48.610Z,60.96
2023-11-14T16:02:15.198Z,61.20
2023-11-14T16:04:41.987Z,60.39
2023-11-14T16:07:09.226Z,60.34
2023-11-14T16:09:36.603Z,60.60
2023-11-14T16:12:03.561Z,60.39
2023-11-14T16:14:30.967Z,60.05
2023-11-14T16:16:57.600Z,59.27
2023-11-14T16:19:24.118Z,59.63
2023-11-14T16:21:50.587Z,59.87
2023-11-14T16:24:17.126Z,60.12
2023-11-14T16:26:43.657Z,60.20
2023-11-14T16:29:10.274Z,60.18
2023-11-14T16:31:38.508Z,60.50
2023-11-14T16:34:06.328Z,59.67
2023-11-14T16:36:33.086Z,59.19
2023-11-14T16:38:59.730Z,59.22
2023-11-14T16:41:26.438Z,59.24
2023-11-14T16:43:55.096Z,58.67
2023-11-14T16:46:21.922Z,58.71
2023-11-14T16:48:48.704Z,58.63
2023-11-14T16:51:22.468Z,57.92
2023-11-14T16:53:49.632Z,58.49
2023-11-14T16:56:16.781Z,58.57
2023-11-14T16:58:43.474Z,58.52
2023-11-14T17:01:10.052Z,58.33
2023-11-14T17:03:36.665Z,57.88
2023-11-14T17:06:03.400Z,57.65
2023-11-14T17:08:31.217Z,58.09
2023-11-14T17:10:57.951Z,58.17
2023-11-14T17:13:25.893Z,58.38
2023-11-14T17:15:54.144Z,58.51
2023-11-14T17:18:20.771Z,57.73
2023-11-14T17:20:47.516Z,56.96
2023-11-14T17:23:14.193Z,56.63
2023-11-14T17:25:41.021Z,56.84
2023-11-14T17:28:07.524Z,56.58
2023-11-14T17:30:34.648Z,56.76
2023-11-14T17:33:01.335Z,57.03
2023-11-14T17:35:27.915Z,57.51
2023-11-14T17:37:54.452Z,57.42
2023-11-14T17:40:20.946Z,57.69
2023-11-14T17:42:47.428Z,57.54
2023-11-14T17:45:14.024Z,57.79
2023-11-14T17:47:40.629Z,57.87
2023-11-14T17:50:09.412Z,57.94
2023-11-14T17:52:36.374Z,57.86
2023-11-14T17:55:03.194Z,58.54
2023-11-14T17:57:29.943Z,59.57
2023-11-14T17:59:56.831Z,60.27
2023-11-14T18:02:23.406Z,59.77
2023-11-14T18:04:50.295Z,58.75
2023-11-14T18:07:16.784Z,58.25
2023-11-14T18:09:43.708Z,58.47
2023-11-14T18:12:10.209Z,58.74
2023-11-14T18:14:36.886Z,58.82
2023-11-14T18:17:04.839Z,59.60
2023-11-14T18:19:31.482Z,59.87
2023-11-14T18:21:59.369Z,60.40
2023-11-14T18:24:26.709Z,60.08
2023-11-14T18:26:55.025Z,60.29
2023-11-14T18:29:21.642Z,61.13
2023-11-14T18:31:49.032Z,60.74
2023-11-14T18:34:15.977Z,58.94
2023-11-14T18:36:42.534Z,58.87
2023-11-14T18:39:09.063Z,58.44
2023-11-14T18:41:35.682Z,58.16
2023-11-14T18:44:02.288Z,58.42
2023-11-14T18:46:29.766Z,57.91
2023-11-14T18:48:56.771Z,57.62
2023-11-14T18:51:23.328Z,57.85
2023-11-14T18:53:49.990Z,58.37
2023-11-14T18:56:16.648Z,58.69
2023-11-14T18:58:43.742Z,58.99
2023-11-14T19:01:11.270Z,59.65
2023-11-14T19:03:37.988Z,60.35
2023-11-14T19:06:05.327Z,60.53
2023-11-14T19:08:32.460Z,61.36
2023-11-14T19:10:59.103Z,62.08
2023-11-14T19:13:25.724Z,63.03
2023-11-14T19:15:52.325Z,63.81
2023-11-14T19:18:19.588Z,63.43
2023-11-14T19:21:10.108Z,63.27
2023-11-14T19:23:42.540Z,64.02
2023-11-14T19:26:11.353Z,64.52
2023-11-14T19:28:39.391Z,65.04
2023-11-14T19:31:05.959Z,65.19
2023-11-14T19:33:33.493Z,65.65
2023-11-14T19:35:59.986Z,66.04
2023-11-14T19:38:26.550Z,66.10
2023-11-14T19:40:53.121Z,66.70
2023-11-14T19:43:19.847Z,66.85
2023-11-14T19:45:46.509Z,67.00
2023-11-14T19:48:13.177Z,67.19
2023-11-14T19:50:39.804Z,67.24
2023-11-14T19:53:06.383Z,67.42
2023-11-14T19:55:33.719Z,67.54
2023-11-14T19:58:00.350Z,67.16
2023-11-14T20:00:26.945Z,67.47
2023-11-14T20:02:53.638Z,67.31
2023-11-14T20:05:20.441Z,67.03
2023-11-14T20:07:47.014Z,66.95
2023-11-14T20:10:14.836Z,67.11
2023-11-14T20:12:44.455Z,67.39
2023-11-14T20:15:14.239Z,67.76
2023-11-14T20:17:42.838Z,67.94
2023-11-14T20:20:12.801Z,67.87
2023-11-14T20:22:39.841Z,67.79
2023-11-14T20:25:06.760Z,67.76
2023-11-14T20:27:34.939Z,68.22
2023-11-14T20:30:02.343Z,68.44
2023-11-14T20:32:29.037Z,68.79
2023-11-14T20:34:55.978Z,68.74
2023-11-14T20:37:22.814Z,68.72
2023-11-14T20:39:49.477Z,68.36
2023-11-14T20:42:16.133Z,68.73
2023-11-14T20:44:45.219Z,69.38
2023-11-14T20:47:12.662Z,69.31
2023-11-14T20:49:39.292Z,68.30
2023-11-14T20:52:08.963Z,68.87
2023-11-14T20:54:35.883Z,68.76
2023-11-14T20:57:02.984Z,68.75
2023-11-14T20:59:29.564Z,68.54
2023-11-14T21:01:57.033Z,68.69
2023-11-14T21:04:23.856Z,68.64
2023-11-14T21:06:50.658Z,68.79
2023-11-14T21:09:18.210Z,68.37
2023-11-14T21:11:45.432Z,68.23
2023-11-14T21:14:12.038Z,68.17
2023-11-14T21:16:39.504Z,68.61
2023-11-14T21:19:06.119Z,68.79
2023-11-14T21:21:32.761Z,68.95
2023-11-14T21:23:59.975Z,68.77
2023-11-14T21:26:28.911Z,68.80
2023-11-14T21:28:55.481Z,68.44
2023-11-14T21:31:22.128Z,68.46
2023-11-14T21:33:50.263Z,68.19
2023-11-14T21:36:16.947Z,68.01
2023-11-14T21:38:43.540Z,67.99
2023-11-14T21:41:10.092Z,68.23
2023-11-14T21:43:36.751Z,68.83
2023-11-14T21:46:03.512Z,68.93
2023-11-14T21:48:30.074Z,68.80
2023-11-14T21:50:56.970Z,68.49
2023-11-14T21:53:23.834Z,68.71
2023-11-14T21:55:50.412Z,69.00
2023-11-14T21:58:17.094Z,69.26
2023-11-14T22:00:43.788Z,69.41
2023-11-14T22:03:10.677Z,69.49
2023-11-14T22:05:37.365Z,69.23
2023-11-14T22:08:04.066Z,68.88
2023-11-14T22:10:31.136Z,69.00
2023-11-14T22:12:57.889Z,68.92
2023-11-14T22:15:24.490Z,68.74
2023-11-14T22:17:51.042Z,68.88
2023-11-14T22:20:17.871Z,66.70
2023-11-14T22:22:44.422Z,67.14
2023-11-14T22:25:10.932Z,67.44
2023-11-14T22:27:37.550Z,67.81
2023-11-14T22:30:05.564Z,67.73
2023-11-14T22:32:32.733Z,67.96
2023-11-14T22:35:01.279Z,67.88
2023-11-14T22:37:29.289Z,67.79
2023-11-14T22:39:55.921Z,68.43
2023-11-14T22:42:22.704Z,68.66
2023-11-14T22:44:49.319Z,68.92
2023-11-14T22:47:16.114Z,68.99
2023-11-14T22:49:44.509Z,69.15
2023-11-14T22:52:11.525Z,69.28
2023-11-14T22:54:38.117Z,69.85
2023-11-14T22:57:05.037Z,69.86
2023-11-14T22:59:31.605Z,69.42
2023-11-14T23:01:59.957Z,68.98
2023-11-14T23:04:26.616Z,69.19
2023-11-14T23:06:55.517Z,69.56
2023-11-14T23:09:24.288Z,69.65
2023-11-14T23:11:55.086Z,69.33
2023-11-14T23:14:21.785Z,69.71
2023-11-14T23:16:50.104Z,69.71
2023-11-14T23:19:17.649Z,70.04
2023-11-14T23:21:49.244Z,70.27
2023-11-14T23:24:21.907Z,70.52
2023-11-14T23:26:48.638Z,70.70
2023-11-14T23:29:15.208Z,70.56
2023-11-14T23:31:41.804Z,70.69
2023-11-14T23:34:08.295Z,70.98
2023-11-14T23:36:34.766Z,71.10
2023-11-14T23:39:01.340Z,71.18
2023-11-14T23:41:28.914Z,71.39
2023-11-14T23:43:56.334Z,71.48
2023-11-14T23:46:24.316Z,71.75
2023-11-14T23:48:51.875Z,71.90
2023-11-14T23:51:19.199Z,72.11
2023-11-14T23:53:46.025Z,71.78
2023-11-14T23:56:13.734Z,71.50
2023-11-14T23:58:40.434Z,71.67
